Chautauqua County-Jamestown Airport
KJHW : now visible

Airfield :











YOU CAN JOIN US ON...

 
LOGIN :

Register | Disclaimer

   EN    FR    IT 

 









Legend :    VFR   Marginal VFR   IFR   Intensive IFR   Very Intensive IFR
Visi :
Ceiling :
>= 8 km
>= 3000ft
5 to 8 km
1000 to 3000 ft
1500m to 5 km
500 to 1000 ft
800 to 1500m
200 to 500 ft
< 800m
< 200 ft
Symbols :   Thunderstorms  Fog  Heavy snow  Heavy precipitations  Wind > 20 kt







- Airport Elevation : 1723 ft


KJHW - Chautauqua County-Jamestown

CURRENT METAR :
  • 181956Z AUTO 34011KT 10SM BKN023 26/21 A2999 RMK AO2 SLP149 T02610206

EXPIRED METARs :
  • 181945Z AUTO 31009KT 10SM FEW023 SCT028 27/21 A2999 RMK AO2
  • 181935Z AUTO 32011KT 10SM SCT023 BKN028 26/21 A2999 RMK AO2
  • 181856Z AUTO 23004KT 10SM FEW040 BKN048 BKN060 27/21 A3000 RMK AO2 SLP150 T02670206
  • 181756Z AUTO VRB05KT 10SM FEW031 27/20 A2999 RMK AO2 SLP147 T02670200 10272 20206 56007
  • 181730Z AUTO 23007KT 190V270 10SM FEW029 26/20 A2999 RMK AO2

TAF KJHW
Valid from the 18 at 18:00 until the 19 at 18:00 UTC


181731Z 1818/1918 29005KT P6SM BKN035
TEMPO 1818/1820 BKN020 BKN035
FM190200 18005KT P6SM FEW250
FM190800 21008KT P6SM SCT250
FM191000 22008KT P6SM BKN080
FM191200 23008KT P6SM BKN040
FM191400 22009KT P6SM BKN060
KZOB FIR / North America



MET'MAP, your aeronautical weather chart ! - Copyright ORBIFLY December 2007 - Disclaimer

ORBIFLY MET'MAP TEAM :

Programming & Development : Alexandra Zaïnal
Concept & Development : Baudouin d'Aumeries
Co-Development & Prog : Marc-Olivier Méhu
Technical & hardware support : Manuel Goepfert

Contact : metmap@orbifly.com




SOURCES & CREDITS :

   NOAA       Earth
Advisory